Time;durP1;ratioP1;P1;durP2;ratioP2;P2;SDS_P1;SDS_P2;PMS_P1;PMS_P2;Temp;Humidity;BMP_temperature;BMP_pressure;BME280_temperature;BME280_humidity;BME280_pressure;Samples;Min_cycle;Max_cycle;Signal;HPM_P1;HPM_P2
2022/09/29 00:02:13;;;;;;;5.30;3.87;;;14.80;58.90;;;;;;5045378;28;20228;-49
2022/09/29 00:04:39;;;;;;;5.23;3.23;;;14.70;59.00;;;;;;5043108;28;20267;-50
2022/09/29 00:07:04;;;;;;;3.30;3.00;;;14.40;60.00;;;;;;5040494;28;20197;-50
2022/09/29 00:09:31;;;;;;;11.10;3.80;;;14.40;60.00;;;;;;5043249;28;20286;-51
2022/09/29 00:11:56;;;;;;;3.97;3.27;;;14.20;60.30;;;;;;5037735;28;20262;-48
2022/09/29 00:14:22;;;;;;;2.63;2.43;;;14.10;60.90;;;;;;5045155;28;20438;-52
2022/09/29 00:16:48;;;;;;;5.83;2.60;;;14.10;61.30;;;;;;5042891;28;20201;-50
2022/09/29 00:19:14;;;;;;;5.03;3.00;;;14.10;61.40;;;;;;5047424;28;20443;-50
2022/09/29 00:21:39;;;;;;;3.93;3.27;;;14.00;62.20;;;;;;5039261;28;20221;-48
2022/09/29 00:24:05;;;;;;;3.10;2.70;;;14.10;61.40;;;;;;5047795;28;20435;-47
2022/09/29 00:26:31;;;;;;;3.30;2.30;;;13.90;61.80;;;;;;5043528;28;20246;-50
2022/09/29 00:28:57;;;;;;;3.07;2.77;;;13.90;61.60;;;;;;5045185;28;20238;-45
2022/09/29 00:31:31;;;;;;;4.77;3.37;;;14.00;61.50;;;;;;5047388;28;20327;-48
2022/09/29 00:33:58;;;;;;;3.63;2.87;;;14.20;61.10;;;;;;5043782;28;20458;-48
2022/09/29 00:36:29;;;;;;;3.47;2.70;;;14.30;60.80;;;;;;5033333;28;20892;-50
2022/09/29 00:38:56;;;;;;;4.67;2.50;;;14.40;60.40;;;;;;5047124;28;20443;-47
2022/09/29 00:41:28;;;;;;;3.30;2.67;;;14.40;59.90;;;;;;5039274;28;21015;-48
2022/09/29 00:43:59;;;;;;;5.23;2.97;;;14.40;59.90;;;;;;5040693;28;20474;-48
2022/09/29 00:46:43;;;;;;;3.20;2.57;;;14.40;59.90;;;;;;5041764;28;20439;-50
2022/09/29 00:49:24;;;;;;;6.63;3.47;;;14.50;59.80;;;;;;5043352;28;20550;-47
2022/09/29 00:51:55;;;;;;;3.53;2.80;;;14.50;59.70;;;;;;5038769;28;20457;-45
2022/09/29 00:54:27;;;;;;;3.47;2.97;;;14.50;59.60;;;;;;5042045;28;20451;-50
2022/09/29 00:56:55;;;;;;;2.90;2.60;;;14.50;59.70;;;;;;5053983;28;20516;-45
2022/09/29 00:59:28;;;;;;;5.20;3.00;;;14.40;60.30;;;;;;5043642;28;20443;-45
2022/09/29 01:01:54;;;;;;;4.47;3.33;;;14.10;60.90;;;;;;5047825;28;21011;-46
2022/09/29 01:04:21;;;;;;;4.00;3.00;;;14.00;61.70;;;;;;5041535;28;20526;-45
2022/09/29 01:06:54;;;;;;;4.53;3.57;;;14.00;61.80;;;;;;5036058;28;20258;-46
2022/09/29 01:09:25;;;;;;;3.93;3.60;;;13.90;61.90;;;;;;5047729;28;20439;-45
2022/09/29 01:11:56;;;;;;;5.00;3.43;;;13.90;62.30;;;;;;5047121;28;20447;-45
2022/09/29 01:14:24;;;;;;;5.70;3.50;;;13.80;62.90;;;;;;5048448;28;20450;-46
2022/09/29 01:16:50;;;;;;;4.17;3.77;;;13.60;63.50;;;;;;5046031;28;20448;-47
2022/09/29 01:19:50;;;;;;;4.93;4.40;;;13.60;63.70;;;;;;5046633;28;21060;-50
2022/09/29 01:22:46;;;;;;;4.20;3.60;;;13.60;63.60;;;;;;5048750;28;20652;-50
2022/09/29 01:25:45;;;;;;;4.30;3.47;;;13.60;63.40;;;;;;5039311;28;20447;-45
2022/09/29 01:28:57;;;;;;;4.83;3.67;;;13.60;63.90;;;;;;5046511;28;20484;-45
2022/09/29 01:31:56;;;;;;;3.63;3.33;;;13.60;63.70;;;;;;4968218;28;20575;-46
2022/09/29 01:34:46;;;;;;;5.20;3.90;;;13.50;63.80;;;;;;4955228;28;20997;-46
2022/09/29 01:37:36;;;;;;;6.97;3.97;;;13.40;64.00;;;;;;5038935;28;20815;-45
2022/09/29 01:40:10;;;;;;;4.30;3.57;;;13.40;64.30;;;;;;5044238;28;20495;-47
2022/09/29 01:42:58;;;;;;;4.67;3.90;;;13.50;64.30;;;;;;5047956;28;20481;-45
2022/09/29 01:45:32;;;;;;;4.07;3.70;;;13.60;63.40;;;;;;5046651;28;20497;-45
2022/09/29 01:48:10;;;;;;;3.70;3.40;;;13.70;63.40;;;;;;5048928;28;20446;-46
2022/09/29 01:50:40;;;;;;;5.23;3.80;;;13.60;63.30;;;;;;5048554;28;20439;-45
2022/09/29 01:53:19;;;;;;;4.40;3.60;;;13.60;63.40;;;;;;5046332;28;20443;-45
2022/09/29 01:55:57;;;;;;;4.10;3.70;;;13.60;64.50;;;;;;5048313;28;20438;-45
2022/09/29 01:58:33;;;;;;;4.00;3.70;;;13.60;63.30;;;;;;5050280;28;20443;-45
2022/09/29 02:01:03;;;;;;;5.17;3.70;;;13.70;63.60;;;;;;5046259;28;20500;-45
2022/09/29 02:03:40;;;;;;;4.67;3.37;;;13.80;63.20;;;;;;5044789;28;20536;-45
2022/09/29 02:06:14;;;;;;;4.80;4.30;;;13.90;63.00;;;;;;5041839;28;20466;-46
2022/09/29 02:08:42;;;;;;;5.10;3.43;;;13.70;62.90;;;;;;5044057;28;20522;-45
2022/09/29 02:11:13;;;;;;;4.13;3.43;;;13.60;63.30;;;;;;5047825;28;20492;-45
2022/09/29 02:13:52;;;;;;;5.13;3.73;;;13.60;63.60;;;;;;5048206;28;20449;-45
2022/09/29 02:16:22;;;;;;;4.00;3.60;;;13.70;63.50;;;;;;5040721;28;20479;-46
2022/09/29 02:19:03;;;;;;;5.37;3.63;;;13.80;63.50;;;;;;5047508;28;20438;-47
2022/09/29 02:21:29;;;;;;;6.13;3.87;;;13.70;63.30;;;;;;5043083;28;20573;-45
2022/09/29 02:23:55;;;;;;;5.70;4.20;;;13.70;63.50;;;;;;5042827;28;20999;-45
2022/09/29 02:26:23;;;;;;;5.00;3.90;;;13.60;63.60;;;;;;5041530;28;20196;-45
2022/09/29 02:28:49;;;;;;;4.30;3.90;;;13.60;63.90;;;;;;5044681;28;20471;-45
2022/09/29 02:31:15;;;;;;;5.53;3.37;;;13.70;63.70;;;;;;5047158;28;20496;-45
2022/09/29 02:33:41;;;;;;;4.13;3.50;;;13.80;63.30;;;;;;5046556;28;20200;-45
2022/09/29 02:36:32;;;;;;;3.93;3.53;;;13.80;62.90;;;;;;5036048;28;20453;-45
2022/09/29 02:39:11;;;;;;;3.67;3.37;;;13.70;63.40;;;;;;5043967;28;20200;-46
2022/09/29 02:41:55;;;;;;;4.80;3.90;;;13.70;63.80;;;;;;5038956;28;20479;-45
2022/09/29 02:44:36;;;;;;;4.60;3.67;;;13.70;63.40;;;;;;5046074;28;20459;-45
2022/09/29 02:47:40;;;;;;;5.67;4.20;;;13.70;63.60;;;;;;5049065;28;20509;-45
2022/09/29 02:50:05;;;;;;;3.97;3.27;;;13.70;63.70;;;;;;4962147;28;20941;-45
2022/09/29 02:53:08;;;;;;;5.13;3.60;;;13.80;63.30;;;;;;5042963;28;20509;-46
2022/09/29 02:55:57;;;;;;;3.83;3.53;;;13.80;63.10;;;;;;5018131;28;20205;-45
2022/09/29 02:58:33;;;;;;;3.43;3.13;;;13.70;63.40;;;;;;5006842;28;20930;-45
2022/09/29 03:00:59;;;;;;;3.90;3.50;;;13.90;63.10;;;;;;5046835;28;20451;-46
2022/09/29 03:03:25;;;;;;;4.27;2.93;;;14.00;62.90;;;;;;5042420;28;20493;-44
2022/09/29 03:05:51;;;;;;;4.10;3.10;;;14.10;62.50;;;;;;5047109;28;20439;-47
2022/09/29 03:08:17;;;;;;;4.57;3.37;;;14.10;62.20;;;;;;5048389;28;20293;-48
2022/09/29 03:10:42;;;;;;;4.10;3.23;;;14.10;61.90;;;;;;5043212;28;20435;-48
2022/09/29 03:13:08;;;;;;;4.83;3.97;;;14.20;61.80;;;;;;5042455;28;20199;-45
2022/09/29 03:15:33;;;;;;;3.60;3.30;;;14.20;61.70;;;;;;5041922;28;20277;-46
2022/09/29 03:18:01;;;;;;;5.83;3.60;;;14.20;62.00;;;;;;5040658;28;20199;-45
2022/09/29 03:20:27;;;;;;;4.23;3.80;;;14.20;61.80;;;;;;5042328;28;20204;-49
2022/09/29 03:22:56;;;;;;;4.10;3.30;;;14.20;62.00;;;;;;5041155;28;20537;-45
2022/09/29 03:25:23;;;;;;;3.77;3.40;;;14.00;62.80;;;;;;5039565;28;20200;-45
2022/09/29 03:27:49;;;;;;;3.70;3.13;;;13.80;63.70;;;;;;5041719;28;20447;-46
2022/09/29 03:30:16;;;;;;;5.13;4.00;;;13.70;63.70;;;;;;5052254;28;20475;-47
2022/09/29 03:32:42;;;;;;;3.50;3.20;;;13.70;64.00;;;;;;5044082;28;20542;-45
2022/09/29 03:35:08;;;;;;;4.60;3.43;;;13.80;63.80;;;;;;5043496;28;20451;-48
2022/09/29 03:37:34;;;;;;;4.10;3.70;;;13.80;63.50;;;;;;5042212;28;21003;-45
2022/09/29 03:40:00;;;;;;;4.37;3.70;;;13.70;63.30;;;;;;5040968;28;20446;-45
2022/09/29 03:42:27;;;;;;;4.93;3.70;;;13.70;63.40;;;;;;5042183;28;20233;-45
2022/09/29 03:44:53;;;;;;;4.10;3.70;;;13.60;63.50;;;;;;5044582;28;20521;-45
2022/09/29 03:47:18;;;;;;;4.90;4.00;;;13.40;63.60;;;;;;5042172;28;20546;-47
2022/09/29 03:49:44;;;;;;;6.77;4.10;;;13.30;64.50;;;;;;5045093;28;20469;-47
2022/09/29 03:52:09;;;;;;;5.87;4.23;;;13.30;64.50;;;;;;5042535;28;20189;-46
2022/09/29 03:54:35;;;;;;;4.40;4.00;;;13.30;64.30;;;;;;5041635;28;20282;-50
2022/09/29 03:57:01;;;;;;;5.60;4.07;;;13.30;63.90;;;;;;5040453;28;20197;-48
2022/09/29 03:59:26;;;;;;;4.63;3.97;;;13.40;63.40;;;;;;5041155;28;20559;-49
2022/09/29 04:01:52;;;;;;;5.10;3.93;;;13.50;63.00;;;;;;5044701;28;20230;-47
2022/09/29 04:04:17;;;;;;;4.57;4.17;;;13.60;62.80;;;;;;5040831;28;20193;-50
2022/09/29 04:06:43;;;;;;;5.30;4.20;;;13.50;62.70;;;;;;5037333;28;20908;-49
2022/09/29 04:09:08;;;;;;;4.97;3.50;;;13.50;62.60;;;;;;5044250;28;20195;-49
2022/09/29 04:11:34;;;;;;;3.70;3.40;;;13.50;62.60;;;;;;5041472;28;20203;-50
2022/09/29 04:14:00;;;;;;;5.40;3.97;;;13.30;62.40;;;;;;5039402;28;20188;-48
2022/09/29 04:16:25;;;;;;;10.03;3.60;;;13.30;62.90;;;;;;5024262;28;20249;-50
2022/09/29 04:18:51;;;;;;;6.93;3.23;;;13.40;62.80;;;;;;5042033;28;20204;-48
2022/09/29 04:21:16;;;;;;;4.00;3.70;;;13.40;62.50;;;;;;5039087;28;20204;-49
2022/09/29 04:23:42;;;;;;;5.03;3.70;;;13.40;62.50;;;;;;5041103;28;20228;-50
2022/09/29 04:26:08;;;;;;;4.03;3.33;;;13.30;62.10;;;;;;5040610;28;20560;-50
2022/09/29 04:28:35;;;;;;;5.07;3.57;;;13.30;62.40;;;;;;5041057;28;20232;-48
2022/09/29 04:31:02;;;;;;;3.90;3.60;;;13.30;62.30;;;;;;5042291;28;20207;-51
2022/09/29 04:33:28;;;;;;;3.93;3.63;;;13.30;62.40;;;;;;5041944;28;20529;-49
2022/09/29 04:35:54;;;;;;;5.77;4.00;;;13.20;62.20;;;;;;5039082;28;20475;-47
2022/09/29 04:38:20;;;;;;;4.63;4.07;;;13.20;62.50;;;;;;5042906;28;20942;-49
2022/09/29 04:40:47;;;;;;;4.53;4.13;;;13.20;62.40;;;;;;5042550;28;20431;-50
2022/09/29 04:43:12;;;;;;;6.07;5.07;;;13.10;62.60;;;;;;5040882;28;20349;-48
2022/09/29 04:45:38;;;;;;;6.73;4.17;;;13.10;62.30;;;;;;5041231;28;20438;-50
2022/09/29 04:48:03;;;;;;;5.77;4.67;;;13.10;62.50;;;;;;5037644;28;21120;-49
2022/09/29 04:50:29;;;;;;;4.83;4.37;;;13.00;62.80;;;;;;5043344;28;20199;-48
2022/09/29 04:52:55;;;;;;;5.73;4.53;;;13.00;64.00;;;;;;5045556;28;20189;-50
2022/09/29 04:55:21;;;;;;;5.97;3.97;;;12.80;63.50;;;;;;5042354;28;20228;-48
2022/09/29 04:57:47;;;;;;;8.50;4.50;;;12.70;63.80;;;;;;5041437;28;20439;-48
2022/09/29 05:00:14;;;;;;;6.50;4.03;;;12.60;64.40;;;;;;5040989;28;20250;-46
2022/09/29 05:02:40;;;;;;;4.60;4.30;;;12.50;65.10;;;;;;5041071;28;20543;-47
2022/09/29 05:05:07;;;;;;;4.83;4.33;;;12.50;65.20;;;;;;5044241;28;20432;-49
2022/09/29 05:07:37;;;;;;;4.07;3.77;;;12.40;65.30;;;;;;5048293;28;20498;-48
2022/09/29 05:10:03;;;;;;;5.00;4.10;;;12.40;66.00;;;;;;5043166;28;21107;-46
2022/09/29 05:12:29;;;;;;;4.20;3.83;;;12.30;66.40;;;;;;5040117;28;20447;-49
2022/09/29 05:14:55;;;;;;;4.80;4.27;;;12.30;66.60;;;;;;5042452;28;20435;-49
2022/09/29 05:17:20;;;;;;;8.10;4.43;;;12.40;66.10;;;;;;5041638;28;20568;-49
2022/09/29 05:19:46;;;;;;;4.27;3.90;;;12.50;65.90;;;;;;5040152;28;20603;-50
2022/09/29 05:22:11;;;;;;;5.77;5.27;;;12.50;65.40;;;;;;5038505;28;20232;-48
2022/09/29 05:24:37;;;;;;;5.07;4.20;;;12.70;65.30;;;;;;5042676;28;20203;-49
2022/09/29 05:27:03;;;;;;;4.20;3.80;;;12.80;66.10;;;;;;5043066;28;20266;-47
2022/09/29 05:29:28;;;;;;;9.30;4.20;;;12.90;66.70;;;;;;5041345;28;20263;-50
2022/09/29 05:31:54;;;;;;;5.13;4.13;;;13.00;66.90;;;;;;5039933;28;20288;-49
2022/09/29 05:34:19;;;;;;;4.73;4.23;;;13.20;66.40;;;;;;5039867;28;20197;-49
2022/09/29 05:36:45;;;;;;;5.90;4.37;;;13.40;66.10;;;;;;5041228;28;20561;-49
2022/09/29 05:39:11;;;;;;;8.43;4.03;;;13.60;65.70;;;;;;5041414;28;20197;-48
2022/09/29 05:41:37;;;;;;;4.30;3.90;;;13.80;64.60;;;;;;5044714;28;20196;-50
2022/09/29 05:44:03;;;;;;;4.10;3.80;;;13.90;63.70;;;;;;5043337;28;20803;-50
2022/09/29 05:46:29;;;;;;;6.33;4.07;;;13.90;62.50;;;;;;5041625;28;20207;-48
2022/09/29 05:48:54;;;;;;;4.23;3.83;;;14.00;62.40;;;;;;5045248;28;20207;-47
2022/09/29 05:51:22;;;;;;;7.63;4.33;;;14.20;62.40;;;;;;5047712;28;20215;-49
2022/09/29 05:53:48;;;;;;;4.40;3.93;;;14.30;61.60;;;;;;5048789;28;20567;-48
2022/09/29 05:56:16;;;;;;;4.80;3.63;;;14.40;61.20;;;;;;5051840;28;20443;-50
2022/09/29 05:58:41;;;;;;;3.70;3.40;;;14.50;60.80;;;;;;5037913;28;20899;-45
2022/09/29 06:01:16;;;;;;;5.27;3.80;;;14.50;60.10;;;;;;5043433;28;20450;-46
2022/09/29 06:03:41;;;;;;;4.53;4.13;;;14.60;60.10;;;;;;5043259;28;20220;-50
2022/09/29 06:06:16;;;;;;;4.73;4.33;;;14.70;60.00;;;;;;5053022;28;20611;-50
2022/09/29 06:08:42;;;;;;;6.10;4.53;;;14.60;59.10;;;;;;5051908;28;20481;-50
2022/09/29 06:11:14;;;;;;;5.93;4.40;;;14.50;59.40;;;;;;5045086;28;20431;-47
2022/09/29 06:13:41;;;;;;;6.43;5.13;;;14.40;59.50;;;;;;5049693;28;20802;-49
2022/09/29 06:16:08;;;;;;;5.17;4.67;;;14.40;59.60;;;;;;5046308;28;20782;-49
2022/09/29 06:18:34;;;;;;;5.37;4.50;;;14.30;59.40;;;;;;5053455;28;20942;-46
2022/09/29 06:21:05;;;;;;;5.60;4.67;;;13.70;60.80;;;;;;5051199;28;20446;-47
2022/09/29 06:23:31;;;;;;;5.13;4.27;;;13.60;62.70;;;;;;5052860;28;20254;-49
2022/09/29 06:25:58;;;;;;;5.03;4.43;;;13.50;62.80;;;;;;5049945;28;20482;-46
2022/09/29 06:28:24;;;;;;;6.73;5.10;;;13.50;62.70;;;;;;5052954;28;20228;-49
2022/09/29 06:30:50;;;;;;;6.07;4.90;;;13.50;62.80;;;;;;5057010;28;20462;-50
2022/09/29 06:33:16;;;;;;;6.10;4.93;;;13.40;62.90;;;;;;5051304;28;20189;-47
2022/09/29 06:38:31;;;;;;;9.37;5.50;;;13.10;64.90;;;;;;5048882;28;20454;-46
2022/09/29 06:40:57;;;;;;;5.83;4.17;;;13.30;65.10;;;;;;5047766;28;20442;-45
2022/09/29 06:43:22;;;;;;;5.67;4.20;;;13.50;64.50;;;;;;5033832;28;20224;-49
2022/09/29 06:45:48;;;;;;;5.13;4.63;;;13.70;63.00;;;;;;5049184;28;20250;-49
2022/09/29 06:48:13;;;;;;;7.13;4.80;;;13.60;63.20;;;;;;5046910;28;20207;-49
2022/09/29 06:50:39;;;;;;;4.17;3.83;;;13.60;63.80;;;;;;5051137;28;20200;-46
2022/09/29 06:53:04;;;;;;;8.50;4.40;;;13.80;63.40;;;;;;5046881;28;20952;-45
2022/09/29 06:55:30;;;;;;;3.83;3.37;;;14.10;63.00;;;;;;5042535;28;20197;-48
2022/09/29 06:57:56;;;;;;;4.50;3.97;;;14.30;62.40;;;;;;5045297;28;20192;-49
2022/09/29 07:00:21;;;;;;;4.40;4.00;;;14.50;61.10;;;;;;5052915;28;20227;-46
2022/09/29 07:02:47;;;;;;;4.60;4.17;;;14.50;60.90;;;;;;5046035;28;20220;-45
2022/09/29 07:05:13;;;;;;;5.10;4.60;;;14.60;60.80;;;;;;5044899;28;20279;-45
2022/09/29 07:07:38;;;;;;;5.30;4.50;;;14.70;60.90;;;;;;5040628;28;20196;-46
2022/09/29 07:10:04;;;;;;;6.80;4.60;;;14.80;60.30;;;;;;5050222;28;20203;-49
2022/09/29 07:12:30;;;;;;;5.10;4.60;;;14.70;60.00;;;;;;5049534;28;20200;-46
2022/09/29 07:14:55;;;;;;;6.43;4.00;;;14.80;60.50;;;;;;5050639;28;20449;-45
2022/09/29 07:17:21;;;;;;;5.23;4.73;;;15.00;60.20;;;;;;5048101;28;20193;-49
2022/09/29 07:19:47;;;;;;;4.40;4.00;;;14.90;59.30;;;;;;5046815;28;20195;-49
2022/09/29 07:22:13;;;;;;;5.13;4.63;;;15.00;59.50;;;;;;5037165;28;21223;-48
2022/09/29 07:24:38;;;;;;;14.17;4.57;;;15.10;60.50;;;;;;5043844;28;20221;-46
2022/09/29 07:27:04;;;;;;;6.87;4.40;;;15.30;60.40;;;;;;5045947;28;20199;-45
2022/09/29 07:29:31;;;;;;;5.63;4.07;;;15.30;59.30;;;;;;5044375;28;20265;-45
2022/09/29 07:31:58;;;;;;;4.33;3.93;;;15.30;59.40;;;;;;5053088;28;20223;-46
2022/09/29 07:34:24;;;;;;;5.70;3.20;;;15.50;59.40;;;;;;5048547;28;20471;-48
2022/09/29 07:36:49;;;;;;;5.00;3.97;;;15.60;59.20;;;;;;5047311;28;20493;-49
2022/09/29 07:39:15;;;;;;;3.93;3.57;;;15.70;59.00;;;;;;5041450;28;20674;-46
2022/09/29 07:41:41;;;;;;;3.93;3.47;;;15.70;58.50;;;;;;5045977;28;20439;-46
2022/09/29 07:44:07;;;;;;;5.80;3.20;;;15.80;58.60;;;;;;5047135;28;20863;-48
2022/09/29 07:46:32;;;;;;;4.73;3.33;;;15.80;58.80;;;;;;5034169;28;20225;-46
2022/09/29 07:48:58;;;;;;;3.40;3.10;;;15.80;58.70;;;;;;5043884;28;20283;-47
2022/09/29 07:51:24;;;;;;;5.87;4.30;;;15.90;58.50;;;;;;5048651;28;20196;-46
2022/09/29 07:53:50;;;;;;;13.30;3.97;;;16.00;58.30;;;;;;5042380;28;20197;-45
2022/09/29 07:56:21;;;;;;;5.53;4.30;;;16.10;58.00;;;;;;5035251;28;20220;-45
2022/09/29 07:58:48;;;;;;;6.70;3.90;;;16.10;57.90;;;;;;5032359;28;20444;-45
2022/09/29 08:01:15;;;;;;;6.17;3.87;;;16.20;58.00;;;;;;5047675;28;21135;-49
2022/09/29 08:03:43;;;;;;;6.03;4.10;;;16.30;59.40;;;;;;5045961;28;20494;-45
2022/09/29 08:06:09;;;;;;;7.33;4.73;;;16.50;58.70;;;;;;5041440;28;20943;-46
2022/09/29 08:08:36;;;;;;;7.23;4.27;;;16.50;57.60;;;;;;5046839;28;20822;-45
2022/09/29 08:11:10;;;;;;;4.63;4.23;;;16.60;57.60;;;;;;5047200;28;20447;-46
2022/09/29 08:13:37;;;;;;;5.60;5.10;;;16.60;57.30;;;;;;5042355;28;20518;-46
2022/09/29 08:16:05;;;;;;;6.17;3.93;;;16.60;57.20;;;;;;5038597;28;20441;-47
2022/09/29 08:18:32;;;;;;;3.83;3.53;;;16.70;57.10;;;;;;5038936;28;20450;-46
2022/09/29 08:20:58;;;;;;;6.20;5.03;;;16.70;57.20;;;;;;5031089;28;20447;-47
2022/09/29 08:23:23;;;;;;;5.20;4.63;;;16.80;57.40;;;;;;5038768;28;20479;-45
2022/09/29 08:25:57;;;;;;;4.80;4.27;;;16.90;57.20;;;;;;5039949;28;20280;-48
2022/09/29 08:28:23;;;;;;;5.00;3.80;;;17.00;57.20;;;;;;5040984;28;20200;-46
2022/09/29 08:30:48;;;;;;;3.60;3.30;;;17.00;56.80;;;;;;5061336;28;20446;-46
2022/09/29 08:33:15;;;;;;;3.83;3.53;;;17.10;56.80;;;;;;5041460;28;20594;-45
2022/09/29 08:35:41;;;;;;;7.37;4.20;;;17.10;56.60;;;;;;5041249;28;20247;-46
2022/09/29 08:38:06;;;;;;;3.70;3.13;;;17.10;56.60;;;;;;5039130;28;20436;-45
2022/09/29 08:40:33;;;;;;;4.50;3.60;;;17.10;56.40;;;;;;5037567;28;20272;-47
2022/09/29 08:43:02;;;;;;;5.20;3.93;;;17.10;55.60;;;;;;5045035;28;20220;-46
2022/09/29 08:45:32;;;;;;;6.17;4.60;;;17.00;56.30;;;;;;5048351;28;20474;-45
2022/09/29 08:48:09;;;;;;;4.33;3.83;;;17.10;56.60;;;;;;5039606;28;20443;-46
2022/09/29 08:50:39;;;;;;;3.27;2.97;;;17.30;56.60;;;;;;5040767;28;20439;-46
2022/09/29 08:53:11;;;;;;;5.30;4.50;;;17.30;56.20;;;;;;5046402;28;20451;-47
2022/09/29 08:55:46;;;;;;;5.13;3.20;;;17.40;56.70;;;;;;5046282;28;20452;-47
2022/09/29 08:58:14;;;;;;;3.70;3.30;;;17.50;56.40;;;;;;5033477;28;20442;-49
2022/09/29 09:00:50;;;;;;;5.40;3.73;;;17.60;56.30;;;;;;5040750;28;20455;-46
2022/09/29 09:03:29;;;;;;;11.00;4.50;;;17.70;56.40;;;;;;5040735;28;20900;-45
2022/09/29 09:06:10;;;;;;;7.13;4.13;;;17.90;56.50;;;;;;5041095;28;20466;-48
2022/09/29 09:08:57;;;;;;;4.30;3.00;;;17.80;58.60;;;;;;5034541;28;20457;-46
2022/09/29 09:11:54;;;;;;;3.43;2.27;;;18.30;57.70;;;;;;5046554;28;20451;-46
2022/09/29 09:14:53;;;;;;;2.70;1.40;;;18.70;56.10;;;;;;5040503;28;20452;-48
2022/09/29 09:17:22;;;;;;;3.17;2.97;;;19.00;53.10;;;;;;5044191;28;20458;-48
2022/09/29 09:19:51;;;;;;;3.53;2.27;;;19.10;52.40;;;;;;5045991;28;20534;-47
2022/09/29 09:22:29;;;;;;;4.00;2.63;;;19.30;52.80;;;;;;5041232;28;20985;-46
2022/09/29 09:25:17;;;;;;;2.87;2.67;;;19.30;53.20;;;;;;5029574;28;20473;-48
2022/09/29 09:27:47;;;;;;;5.40;2.50;;;19.50;52.70;;;;;;5043803;28;20487;-47
2022/09/29 09:30:16;;;;;;;3.10;2.27;;;19.70;51.90;;;;;;5045172;28;20871;-47
2022/09/29 09:32:53;;;;;;;2.40;2.13;;;19.70;51.50;;;;;;5037208;28;20990;-47
2022/09/29 09:35:36;;;;;;;3.90;2.47;;;19.80;51.70;;;;;;5045711;28;20446;-46
2022/09/29 09:38:09;;;;;;;2.07;1.90;;;19.60;53.50;;;;;;5047514;28;20875;-47
2022/09/29 09:40:46;;;;;;;3.30;1.60;;;19.60;50.30;;;;;;5044876;28;20443;-47
2022/09/29 09:43:32;;;;;;;1.97;1.87;;;19.60;50.20;;;;;;5039372;28;20523;-46
2022/09/29 09:46:21;;;;;;;2.13;1.93;;;19.50;49.30;;;;;;5040412;28;20449;-46
2022/09/29 09:49:12;;;;;;;2.93;2.10;;;19.60;50.20;;;;;;5031936;28;20950;-46
2022/09/29 09:51:52;;;;;;;1.77;1.67;;;19.70;50.10;;;;;;5045086;28;20451;-47
2022/09/29 09:54:26;;;;;;;3.03;1.77;;;19.70;50.40;;;;;;5040815;28;20942;-48
2022/09/29 09:56:57;;;;;;;2.70;2.00;;;19.70;49.90;;;;;;5047007;28;20450;-49
2022/09/29 09:59:55;;;;;;;1.67;1.57;;;19.70;50.50;;;;;;5047490;28;20462;-46
2022/09/29 10:02:22;;;;;;;4.20;1.90;;;19.80;49.50;;;;;;5025118;28;20589;-47
2022/09/29 10:04:51;;;;;;;3.20;1.90;;;19.90;50.20;;;;;;5042839;28;20581;-46
2022/09/29 10:07:19;;;;;;;2.43;1.93;;;20.10;50.10;;;;;;5045980;28;20463;-46
2022/09/29 10:09:45;;;;;;;3.90;2.17;;;20.20;50.40;;;;;;5050392;28;20524;-46
2022/09/29 10:12:16;;;;;;;4.00;2.27;;;20.20;49.90;;;;;;5045186;28;20912;-45
2022/09/29 10:14:51;;;;;;;3.70;2.30;;;20.30;49.40;;;;;;5051724;28;20220;-46
2022/09/29 10:17:22;;;;;;;2.50;1.47;;;20.40;50.00;;;;;;5035687;28;21049;-46
2022/09/29 10:19:54;;;;;;;3.07;1.97;;;20.50;50.10;;;;;;5051435;28;20813;-49
2022/09/29 10:22:19;;;;;;;3.70;2.33;;;20.50;48.90;;;;;;5046763;28;20491;-46
2022/09/29 10:24:45;;;;;;;4.73;2.20;;;20.50;48.20;;;;;;5048077;28;20505;-46
2022/09/29 10:27:19;;;;;;;2.90;2.30;;;20.40;48.80;;;;;;5047740;28;20193;-46
2022/09/29 10:29:51;;;;;;;7.40;2.13;;;20.30;51.30;;;;;;5050447;28;20262;-46
2022/09/29 10:32:37;;;;;;;3.37;2.23;;;20.30;51.90;;;;;;5053207;28;21010;-46
2022/09/29 10:35:20;;;;;;;2.80;2.10;;;20.60;49.40;;;;;;5051526;28;20493;-46
2022/09/29 10:37:51;;;;;;;2.40;2.03;;;20.80;48.70;;;;;;5049906;28;20934;-46
2022/09/29 10:40:21;;;;;;;6.30;1.70;;;20.90;48.10;;;;;;5046893;28;20474;-47
2022/09/29 10:42:49;;;;;;;2.70;1.97;;;20.80;51.20;;;;;;5025587;28;21017;-47
2022/09/29 10:45:22;;;;;;;4.83;2.30;;;20.80;50.40;;;;;;5049372;28;20439;-47
2022/09/29 10:47:57;;;;;;;3.30;1.90;;;21.00;49.50;;;;;;5043339;28;20458;-50
2022/09/29 10:50:33;;;;;;;5.00;2.60;;;21.20;47.80;;;;;;5046375;28;20980;-47
2022/09/29 10:53:05;;;;;;;3.80;1.97;;;21.40;48.10;;;;;;5050541;28;20950;-47
2022/09/29 10:55:33;;;;;;;1.70;1.60;;;21.10;45.40;;;;;;5049252;28;20451;-46
2022/09/29 10:58:15;;;;;;;2.23;1.87;;;20.90;46.50;;;;;;5039333;28;20458;-46
2022/09/29 11:00:42;;;;;;;2.63;2.10;;;21.00;46.40;;;;;;5049883;28;20741;-47
2022/09/29 11:03:21;;;;;;;2.00;1.80;;;21.10;45.90;;;;;;5050328;28;20487;-49
2022/09/29 11:05:58;;;;;;;4.20;2.20;;;21.20;47.80;;;;;;5039640;28;20451;-47
2022/09/29 11:08:26;;;;;;;5.70;2.97;;;21.30;47.10;;;;;;5033436;28;20423;-47
2022/09/29 11:11:25;;;;;;;4.10;2.27;;;21.40;47.20;;;;;;5031403;28;20453;-48
2022/09/29 11:13:51;;;;;;;5.63;2.27;;;21.50;48.10;;;;;;5050209;28;20463;-49
2022/09/29 11:16:23;;;;;;;2.77;2.10;;;21.40;46.90;;;;;;5047640;28;20447;-51
2022/09/29 11:18:52;;;;;;;2.50;1.90;;;21.40;45.60;;;;;;5048992;28;20482;-52
2022/09/29 11:21:26;;;;;;;7.40;1.67;;;21.30;45.90;;;;;;5038408;28;20472;-52
2022/09/29 11:24:10;;;;;;;3.93;2.23;;;21.50;46.00;;;;;;5043580;28;20482;-49
2022/09/29 11:26:40;;;;;;;2.20;1.87;;;21.10;45.50;;;;;;5039203;28;20446;-48
2022/09/29 11:29:10;;;;;;;2.37;2.00;;;21.00;45.40;;;;;;5051391;28;20479;-49
2022/09/29 11:31:45;;;;;;;3.17;2.00;;;21.10;45.70;;;;;;5059589;28;20439;-48
2022/09/29 11:34:31;;;;;;;2.63;2.20;;;21.30;45.30;;;;;;5045786;28;20439;-48
2022/09/29 11:37:12;;;;;;;2.67;1.80;;;21.50;44.30;;;;;;5046502;28;20963;-48
2022/09/29 11:39:50;;;;;;;3.10;1.77;;;21.50;45.00;;;;;;5046130;28;20459;-47
2022/09/29 11:42:25;;;;;;;1.90;1.80;;;21.40;44.30;;;;;;5047260;28;20504;-48
2022/09/29 11:45:02;;;;;;;1.93;1.83;;;21.30;45.70;;;;;;5040385;28;20499;-50
2022/09/29 11:47:49;;;;;;;2.37;1.90;;;21.40;45.50;;;;;;5043124;28;20447;-49
2022/09/29 11:50:26;;;;;;;1.87;1.77;;;21.40;44.20;;;;;;5046831;28;20813;-50
2022/09/29 11:53:00;;;;;;;2.57;1.97;;;21.50;43.60;;;;;;5045774;28;20538;-48
2022/09/29 11:55:36;;;;;;;4.50;1.63;;;21.60;43.60;;;;;;5044547;28;20446;-47
2022/09/29 11:58:13;;;;;;;2.27;2.07;;;21.60;43.70;;;;;;5041251;28;20446;-47
2022/09/29 12:00:49;;;;;;;2.70;2.00;;;21.70;42.90;;;;;;5045422;28;20462;-47
2022/09/29 12:03:38;;;;;;;3.43;2.20;;;21.70;42.60;;;;;;5042044;28;20482;-47
2022/09/29 12:06:32;;;;;;;1.80;1.70;;;21.70;43.30;;;;;;5045350;28;20459;-47
2022/09/29 12:09:12;;;;;;;2.70;2.00;;;21.70;42.80;;;;;;5002050;28;20471;-46
2022/09/29 12:12:07;;;;;;;3.00;1.60;;;21.80;42.70;;;;;;5048128;28;20616;-46
2022/09/29 12:14:56;;;;;;;1.60;1.40;;;21.80;42.50;;;;;;5016557;28;20506;-47
2022/09/29 12:17:28;;;;;;;2.23;1.77;;;21.90;41.20;;;;;;5047523;28;20986;-49
2022/09/29 12:20:19;;;;;;;5.83;1.93;;;22.10;41.30;;;;;;5043118;28;20439;-48
2022/09/29 12:22:47;;;;;;;4.63;1.43;;;21.80;39.10;;;;;;5036187;28;20517;-50
2022/09/29 12:25:16;;;;;;;1.67;1.47;;;21.50;40.40;;;;;;5040200;28;20439;-49
2022/09/29 12:27:45;;;;;;;2.30;1.50;;;21.80;40.60;;;;;;5042804;28;21256;-48
2022/09/29 12:30:20;;;;;;;4.20;1.90;;;22.00;40.60;;;;;;5055829;28;20519;-49
2022/09/29 12:32:51;;;;;;;1.90;1.30;;;22.10;39.80;;;;;;5045809;28;20849;-50
2022/09/29 12:35:56;;;;;;;1.60;1.43;;;22.20;39.90;;;;;;5045670;28;21088;-48
2022/09/29 12:38:42;;;;;;;2.77;1.17;;;22.30;39.80;;;;;;5043152;28;20741;-48
2022/09/29 12:41:13;;;;;;;2.03;1.13;;;22.50;37.30;;;;;;5040116;28;21274;-47
2022/09/29 12:43:53;;;;;;;1.87;1.30;;;22.00;36.40;;;;;;5039613;28;20522;-49
2022/09/29 12:46:30;;;;;;;1.40;1.27;;;22.00;38.90;;;;;;5043343;28;20504;-50
2022/09/29 12:49:03;;;;;;;1.77;1.20;;;22.10;39.70;;;;;;5042983;28;20439;-49
2022/09/29 12:51:37;;;;;;;3.67;1.73;;;22.40;39.00;;;;;;5039498;28;20527;-47
2022/09/29 12:54:43;;;;;;;2.90;1.43;;;22.60;37.60;;;;;;5043901;28;20470;-47
2022/09/29 12:57:18;;;;;;;1.50;1.30;;;22.40;38.10;;;;;;5042793;28;20447;-47
2022/09/29 12:59:47;;;;;;;2.00;1.50;;;21.90;38.90;;;;;;5043971;28;20850;-47
2022/09/29 13:02:41;;;;;;;4.23;1.70;;;21.50;39.20;;;;;;5036967;28;20487;-47
2022/09/29 13:05:06;;;;;;;1.10;1.00;;;21.80;40.00;;;;;;5044810;28;21226;-49
2022/09/29 13:07:49;;;;;;;1.50;1.40;;;22.30;40.00;;;;;;5049414;28;20439;-51
2022/09/29 13:10:26;;;;;;;1.90;1.33;;;22.70;39.00;;;;;;5045708;28;20674;-50
2022/09/29 13:13:10;;;;;;;1.57;1.20;;;22.90;38.70;;;;;;5052026;28;20477;-48